sensor_id;sensor_type;location;lat;lon;timestamp;P1;durP1;ratioP1;P2;durP2;ratioP2
15871;SDS011;8035;51.962;7.162;2023-05-16T00:01:37;2.40;;;2.00;;
15871;SDS011;8035;51.962;7.162;2023-05-16T00:04:03;2.30;;;2.10;;
15871;SDS011;8035;51.962;7.162;2023-05-16T00:06:29;2.17;;;2.00;;
15871;SDS011;8035;51.962;7.162;2023-05-16T00:08:55;3.23;;;1.93;;
15871;SDS011;8035;51.962;7.162;2023-05-16T00:11:21;1.70;;;1.60;;
15871;SDS011;8035;51.962;7.162;2023-05-16T00:13:47;2.37;;;1.93;;
15871;SDS011;8035;51.962;7.162;2023-05-16T00:16:13;2.27;;;1.90;;
15871;SDS011;8035;51.962;7.162;2023-05-16T00:18:39;2.57;;;1.73;;
15871;SDS011;8035;51.962;7.162;2023-05-16T00:21:04;1.73;;;1.63;;
15871;SDS011;8035;51.962;7.162;2023-05-16T00:23:31;1.63;;;1.40;;
15871;SDS011;8035;51.962;7.162;2023-05-16T00:25:57;3.80;;;1.50;;
15871;SDS011;8035;51.962;7.162;2023-05-16T00:28:22;2.27;;;1.60;;
15871;SDS011;8035;51.962;7.162;2023-05-16T00:30:48;3.33;;;1.47;;
15871;SDS011;8035;51.962;7.162;2023-05-16T00:33:13;4.40;;;2.00;;
15871;SDS011;8035;51.962;7.162;2023-05-16T00:35:39;3.17;;;1.63;;
15871;SDS011;8035;51.962;7.162;2023-05-16T00:38:05;4.40;;;2.00;;
15871;SDS011;8035;51.962;7.162;2023-05-16T00:40:31;5.37;;;2.30;;
15871;SDS011;8035;51.962;7.162;2023-05-16T00:42:57;7.37;;;2.53;;
15871;SDS011;8035;51.962;7.162;2023-05-16T00:45:22;7.93;;;2.70;;
15871;SDS011;8035;51.962;7.162;2023-05-16T00:47:49;6.43;;;2.40;;
15871;SDS011;8035;51.962;7.162;2023-05-16T00:50:17;4.87;;;2.10;;
15871;SDS011;8035;51.962;7.162;2023-05-16T00:52:43;7.63;;;2.80;;
15871;SDS011;8035;51.962;7.162;2023-05-16T00:55:09;10.20;;;2.80;;
15871;SDS011;8035;51.962;7.162;2023-05-16T00:57:36;7.53;;;2.30;;
15871;SDS011;8035;51.962;7.162;2023-05-16T01:00:03;4.60;;;2.43;;
15871;SDS011;8035;51.962;7.162;2023-05-16T01:02:30;3.40;;;2.10;;
15871;SDS011;8035;51.962;7.162;2023-05-16T01:04:58;6.63;;;2.30;;
15871;SDS011;8035;51.962;7.162;2023-05-16T01:07:24;7.87;;;2.80;;
15871;SDS011;8035;51.962;7.162;2023-05-16T01:09:50;11.70;;;3.10;;
15871;SDS011;8035;51.962;7.162;2023-05-16T01:15:03;8.83;;;3.10;;
15871;SDS011;8035;51.962;7.162;2023-05-16T01:20:28;5.67;;;2.47;;
15871;SDS011;8035;51.962;7.162;2023-05-16T01:23:06;10.50;;;3.13;;
15871;SDS011;8035;51.962;7.162;2023-05-16T01:29:00;12.07;;;3.00;;
15871;SDS011;8035;51.962;7.162;2023-05-16T01:31:27;9.20;;;2.90;;
15871;SDS011;8035;51.962;7.162;2023-05-16T01:33:53;9.70;;;2.80;;
15871;SDS011;8035;51.962;7.162;2023-05-16T01:36:21;9.53;;;3.00;;
15871;SDS011;8035;51.962;7.162;2023-05-16T01:44:24;10.43;;;3.07;;
15871;SDS011;8035;51.962;7.162;2023-05-16T01:47:08;7.60;;;2.93;;
15871;SDS011;8035;51.962;7.162;2023-05-16T01:49:49;9.80;;;2.93;;
15871;SDS011;8035;51.962;7.162;2023-05-16T01:52:26;9.43;;;3.53;;
15871;SDS011;8035;51.962;7.162;2023-05-16T01:54:56;7.37;;;2.90;;
15871;SDS011;8035;51.962;7.162;2023-05-16T01:57:23;10.17;;;3.30;;
15871;SDS011;8035;51.962;7.162;2023-05-16T01:59:50;8.70;;;3.10;;
15871;SDS011;8035;51.962;7.162;2023-05-16T02:02:17;8.53;;;2.97;;
15871;SDS011;8035;51.962;7.162;2023-05-16T02:04:43;8.53;;;3.13;;
15871;SDS011;8035;51.962;7.162;2023-05-16T02:07:08;10.17;;;3.03;;
15871;SDS011;8035;51.962;7.162;2023-05-16T02:09:34;9.60;;;3.10;;
15871;SDS011;8035;51.962;7.162;2023-05-16T02:12:00;11.93;;;2.70;;
15871;SDS011;8035;51.962;7.162;2023-05-16T02:14:26;10.80;;;3.10;;
15871;SDS011;8035;51.962;7.162;2023-05-16T02:16:52;11.70;;;2.70;;
15871;SDS011;8035;51.962;7.162;2023-05-16T02:19:17;10.33;;;3.20;;
15871;SDS011;8035;51.962;7.162;2023-05-16T02:21:43;9.47;;;2.87;;
15871;SDS011;8035;51.962;7.162;2023-05-16T02:24:08;10.50;;;2.50;;
15871;SDS011;8035;51.962;7.162;2023-05-16T02:26:34;11.80;;;3.13;;
15871;SDS011;8035;51.962;7.162;2023-05-16T02:28:59;10.43;;;3.60;;
15871;SDS011;8035;51.962;7.162;2023-05-16T02:31:26;10.87;;;2.50;;
15871;SDS011;8035;51.962;7.162;2023-05-16T02:33:52;7.23;;;3.00;;
15871;SDS011;8035;51.962;7.162;2023-05-16T02:36:18;10.83;;;3.00;;
15871;SDS011;8035;51.962;7.162;2023-05-16T02:38:45;11.43;;;3.10;;
15871;SDS011;8035;51.962;7.162;2023-05-16T02:41:10;11.43;;;3.03;;
15871;SDS011;8035;51.962;7.162;2023-05-16T02:43:36;15.83;;;3.30;;
15871;SDS011;8035;51.962;7.162;2023-05-16T02:46:03;12.60;;;3.33;;
15871;SDS011;8035;51.962;7.162;2023-05-16T02:48:29;11.03;;;2.77;;
15871;SDS011;8035;51.962;7.162;2023-05-16T02:50:55;10.43;;;2.70;;
15871;SDS011;8035;51.962;7.162;2023-05-16T02:53:21;15.10;;;3.03;;
15871;SDS011;8035;51.962;7.162;2023-05-16T02:55:46;10.80;;;3.10;;
15871;SDS011;8035;51.962;7.162;2023-05-16T02:58:12;9.10;;;2.80;;
15871;SDS011;8035;51.962;7.162;2023-05-16T03:00:38;12.93;;;3.30;;
15871;SDS011;8035;51.962;7.162;2023-05-16T03:03:03;8.87;;;3.37;;
15871;SDS011;8035;51.962;7.162;2023-05-16T03:05:29;10.50;;;2.93;;
15871;SDS011;8035;51.962;7.162;2023-05-16T03:07:55;10.93;;;2.87;;
15871;SDS011;8035;51.962;7.162;2023-05-16T03:10:21;13.23;;;3.10;;
15871;SDS011;8035;51.962;7.162;2023-05-16T03:12:47;9.00;;;3.23;;
15871;SDS011;8035;51.962;7.162;2023-05-16T03:15:12;9.73;;;2.70;;
15871;SDS011;8035;51.962;7.162;2023-05-16T03:17:38;9.03;;;3.20;;
15871;SDS011;8035;51.962;7.162;2023-05-16T03:20:03;7.03;;;2.57;;
15871;SDS011;8035;51.962;7.162;2023-05-16T03:22:33;9.53;;;2.80;;
15871;SDS011;8035;51.962;7.162;2023-05-16T03:24:58;12.53;;;2.90;;
15871;SDS011;8035;51.962;7.162;2023-05-16T03:27:25;10.67;;;2.80;;
15871;SDS011;8035;51.962;7.162;2023-05-16T03:29:51;8.33;;;2.70;;
15871;SDS011;8035;51.962;7.162;2023-05-16T03:32:17;9.43;;;2.73;;
15871;SDS011;8035;51.962;7.162;2023-05-16T03:34:42;10.97;;;2.50;;
15871;SDS011;8035;51.962;7.162;2023-05-16T03:37:08;9.00;;;2.77;;
15871;SDS011;8035;51.962;7.162;2023-05-16T03:39:34;8.97;;;2.47;;
15871;SDS011;8035;51.962;7.162;2023-05-16T03:42:00;10.83;;;2.53;;
15871;SDS011;8035;51.962;7.162;2023-05-16T03:44:26;10.83;;;2.73;;
15871;SDS011;8035;51.962;7.162;2023-05-16T03:46:51;8.83;;;2.63;;
15871;SDS011;8035;51.962;7.162;2023-05-16T03:49:18;7.50;;;2.80;;
15871;SDS011;8035;51.962;7.162;2023-05-16T03:51:45;7.63;;;2.57;;
15871;SDS011;8035;51.962;7.162;2023-05-16T03:54:10;9.43;;;2.33;;
15871;SDS011;8035;51.962;7.162;2023-05-16T03:56:36;8.13;;;2.70;;
15871;SDS011;8035;51.962;7.162;2023-05-16T03:59:01;13.97;;;3.07;;
15871;SDS011;8035;51.962;7.162;2023-05-16T04:01:27;11.03;;;2.40;;
15871;SDS011;8035;51.962;7.162;2023-05-16T04:03:53;6.77;;;2.30;;
15871;SDS011;8035;51.962;7.162;2023-05-16T04:06:19;11.43;;;2.90;;
15871;SDS011;8035;51.962;7.162;2023-05-16T04:08:45;12.20;;;3.50;;
15871;SDS011;8035;51.962;7.162;2023-05-16T04:11:10;9.87;;;2.57;;
15871;SDS011;8035;51.962;7.162;2023-05-16T04:13:36;8.00;;;2.37;;
15871;SDS011;8035;51.962;7.162;2023-05-16T04:16:02;7.83;;;2.20;;
15871;SDS011;8035;51.962;7.162;2023-05-16T04:18:27;10.50;;;2.80;;
15871;SDS011;8035;51.962;7.162;2023-05-16T04:20:53;12.40;;;2.37;;
15871;SDS011;8035;51.962;7.162;2023-05-16T04:23:18;7.17;;;2.80;;
15871;SDS011;8035;51.962;7.162;2023-05-16T04:25:44;13.87;;;3.30;;
15871;SDS011;8035;51.962;7.162;2023-05-16T04:28:10;11.53;;;2.77;;
15871;SDS011;8035;51.962;7.162;2023-05-16T04:30:36;10.90;;;2.30;;
15871;SDS011;8035;51.962;7.162;2023-05-16T04:33:02;11.87;;;2.47;;
15871;SDS011;8035;51.962;7.162;2023-05-16T04:35:28;7.93;;;2.70;;
15871;SDS011;8035;51.962;7.162;2023-05-16T04:37:53;9.57;;;2.73;;
15871;SDS011;8035;51.962;7.162;2023-05-16T04:40:19;8.80;;;2.27;;
15871;SDS011;8035;51.962;7.162;2023-05-16T04:42:45;9.13;;;2.37;;
15871;SDS011;8035;51.962;7.162;2023-05-16T04:45:11;9.47;;;2.70;;
15871;SDS011;8035;51.962;7.162;2023-05-16T04:47:38;7.10;;;2.03;;
15871;SDS011;8035;51.962;7.162;2023-05-16T04:50:04;9.23;;;2.33;;
15871;SDS011;8035;51.962;7.162;2023-05-16T04:52:32;12.00;;;3.07;;
15871;SDS011;8035;51.962;7.162;2023-05-16T04:54:58;7.10;;;2.40;;
15871;SDS011;8035;51.962;7.162;2023-05-16T04:57:24;10.00;;;2.20;;
15871;SDS011;8035;51.962;7.162;2023-05-16T04:59:51;6.43;;;2.23;;
15871;SDS011;8035;51.962;7.162;2023-05-16T05:02:17;6.33;;;2.10;;
15871;SDS011;8035;51.962;7.162;2023-05-16T05:04:43;11.10;;;2.37;;
15871;SDS011;8035;51.962;7.162;2023-05-16T05:07:08;8.80;;;2.33;;
15871;SDS011;8035;51.962;7.162;2023-05-16T05:09:34;9.73;;;2.33;;
15871;SDS011;8035;51.962;7.162;2023-05-16T05:12:00;9.53;;;2.10;;
15871;SDS011;8035;51.962;7.162;2023-05-16T05:14:25;10.37;;;3.00;;
15871;SDS011;8035;51.962;7.162;2023-05-16T05:16:51;10.40;;;2.77;;
15871;SDS011;8035;51.962;7.162;2023-05-16T05:19:16;7.53;;;2.73;;
15871;SDS011;8035;51.962;7.162;2023-05-16T05:21:42;6.07;;;2.67;;
15871;SDS011;8035;51.962;7.162;2023-05-16T05:24:08;11.33;;;2.20;;
15871;SDS011;8035;51.962;7.162;2023-05-16T05:26:33;10.47;;;2.63;;
15871;SDS011;8035;51.962;7.162;2023-05-16T05:28:59;7.70;;;2.73;;
15871;SDS011;8035;51.962;7.162;2023-05-16T05:31:24;8.33;;;2.60;;
15871;SDS011;8035;51.962;7.162;2023-05-16T05:33:50;12.03;;;2.20;;
15871;SDS011;8035;51.962;7.162;2023-05-16T05:36:15;7.40;;;2.47;;
15871;SDS011;8035;51.962;7.162;2023-05-16T05:38:41;13.43;;;3.60;;
15871;SDS011;8035;51.962;7.162;2023-05-16T05:41:07;11.50;;;2.73;;
15871;SDS011;8035;51.962;7.162;2023-05-16T05:43:32;9.40;;;2.30;;
15871;SDS011;8035;51.962;7.162;2023-05-16T05:45:58;8.47;;;2.30;;
15871;SDS011;8035;51.962;7.162;2023-05-16T05:48:24;9.20;;;2.20;;
15871;SDS011;8035;51.962;7.162;2023-05-16T05:50:50;11.27;;;2.73;;
15871;SDS011;8035;51.962;7.162;2023-05-16T05:53:17;7.67;;;2.30;;
15871;SDS011;8035;51.962;7.162;2023-05-16T05:55:42;8.77;;;2.40;;
15871;SDS011;8035;51.962;7.162;2023-05-16T05:58:08;10.27;;;3.17;;
15871;SDS011;8035;51.962;7.162;2023-05-16T06:00:33;9.20;;;2.60;;
15871;SDS011;8035;51.962;7.162;2023-05-16T06:02:59;8.60;;;2.70;;
15871;SDS011;8035;51.962;7.162;2023-05-16T06:05:24;6.23;;;2.10;;
15871;SDS011;8035;51.962;7.162;2023-05-16T06:07:50;15.20;;;2.87;;
15871;SDS011;8035;51.962;7.162;2023-05-16T06:10:15;12.07;;;3.07;;
15871;SDS011;8035;51.962;7.162;2023-05-16T06:12:41;8.43;;;2.60;;
15871;SDS011;8035;51.962;7.162;2023-05-16T06:15:07;6.93;;;1.93;;
15871;SDS011;8035;51.962;7.162;2023-05-16T06:17:33;7.37;;;2.43;;
15871;SDS011;8035;51.962;7.162;2023-05-16T06:19:59;6.97;;;1.83;;
15871;SDS011;8035;51.962;7.162;2023-05-16T06:22:25;7.50;;;2.20;;
15871;SDS011;8035;51.962;7.162;2023-05-16T06:24:51;10.53;;;2.37;;
15871;SDS011;8035;51.962;7.162;2023-05-16T06:27:16;10.30;;;1.97;;
15871;SDS011;8035;51.962;7.162;2023-05-16T06:29:42;7.77;;;2.30;;
15871;SDS011;8035;51.962;7.162;2023-05-16T06:32:08;11.10;;;2.30;;
15871;SDS011;8035;51.962;7.162;2023-05-16T06:34:33;9.10;;;2.10;;
15871;SDS011;8035;51.962;7.162;2023-05-16T06:36:59;7.70;;;2.30;;
15871;SDS011;8035;51.962;7.162;2023-05-16T06:39:27;7.23;;;2.20;;
15871;SDS011;8035;51.962;7.162;2023-05-16T06:41:53;7.43;;;1.87;;
15871;SDS011;8035;51.962;7.162;2023-05-16T06:44:19;8.30;;;2.10;;
15871;SDS011;8035;51.962;7.162;2023-05-16T06:46:44;6.77;;;2.07;;
15871;SDS011;8035;51.962;7.162;2023-05-16T06:49:10;5.07;;;1.87;;
15871;SDS011;8035;51.962;7.162;2023-05-16T06:51:35;11.67;;;2.50;;
15871;SDS011;8035;51.962;7.162;2023-05-16T06:54:01;6.00;;;2.23;;
15871;SDS011;8035;51.962;7.162;2023-05-16T06:56:26;7.73;;;2.50;;
15871;SDS011;8035;51.962;7.162;2023-05-16T06:58:52;7.47;;;2.10;;
15871;SDS011;8035;51.962;7.162;2023-05-16T07:01:18;6.50;;;1.97;;
15871;SDS011;8035;51.962;7.162;2023-05-16T07:03:44;6.13;;;1.70;;
15871;SDS011;8035;51.962;7.162;2023-05-16T07:06:09;6.93;;;1.87;;
15871;SDS011;8035;51.962;7.162;2023-05-16T07:08:35;7.63;;;1.80;;
15871;SDS011;8035;51.962;7.162;2023-05-16T07:11:01;6.47;;;1.77;;
15871;SDS011;8035;51.962;7.162;2023-05-16T07:13:26;4.33;;;1.63;;
15871;SDS011;8035;51.962;7.162;2023-05-16T07:15:52;7.73;;;2.10;;
15871;SDS011;8035;51.962;7.162;2023-05-16T07:18:18;5.53;;;1.83;;
15871;SDS011;8035;51.962;7.162;2023-05-16T07:20:43;5.50;;;1.30;;
15871;SDS011;8035;51.962;7.162;2023-05-16T07:23:09;7.40;;;1.63;;
15871;SDS011;8035;51.962;7.162;2023-05-16T07:25:35;4.27;;;1.77;;
15871;SDS011;8035;51.962;7.162;2023-05-16T07:28:01;9.30;;;1.83;;
15871;SDS011;8035;51.962;7.162;2023-05-16T07:30:27;4.97;;;1.67;;
15871;SDS011;8035;51.962;7.162;2023-05-16T07:32:53;7.20;;;1.87;;
15871;SDS011;8035;51.962;7.162;2023-05-16T07:35:19;5.07;;;1.80;;
15871;SDS011;8035;51.962;7.162;2023-05-16T07:37:44;6.13;;;1.80;;
15871;SDS011;8035;51.962;7.162;2023-05-16T07:40:10;6.87;;;1.60;;
15871;SDS011;8035;51.962;7.162;2023-05-16T07:42:36;4.37;;;1.50;;
15871;SDS011;8035;51.962;7.162;2023-05-16T07:45:02;7.37;;;1.40;;
15871;SDS011;8035;51.962;7.162;2023-05-16T07:47:28;4.67;;;1.77;;
15871;SDS011;8035;51.962;7.162;2023-05-16T07:49:54;5.57;;;2.00;;
15871;SDS011;8035;51.962;7.162;2023-05-16T07:52:19;5.30;;;1.80;;
15871;SDS011;8035;51.962;7.162;2023-05-16T07:54:45;3.60;;;1.40;;
15871;SDS011;8035;51.962;7.162;2023-05-16T07:57:12;5.00;;;1.73;;
15871;SDS011;8035;51.962;7.162;2023-05-16T07:59:38;6.27;;;1.50;;
15871;SDS011;8035;51.962;7.162;2023-05-16T08:02:04;4.70;;;1.77;;
15871;SDS011;8035;51.962;7.162;2023-05-16T08:04:30;7.03;;;1.97;;
15871;SDS011;8035;51.962;7.162;2023-05-16T08:06:55;5.77;;;1.70;;
15871;SDS011;8035;51.962;7.162;2023-05-16T08:09:21;5.30;;;1.50;;
15871;SDS011;8035;51.962;7.162;2023-05-16T08:11:46;6.00;;;1.73;;
15871;SDS011;8035;51.962;7.162;2023-05-16T08:14:12;4.93;;;1.50;;
15871;SDS011;8035;51.962;7.162;2023-05-16T08:16:37;4.93;;;1.57;;
15871;SDS011;8035;51.962;7.162;2023-05-16T08:19:03;5.77;;;1.40;;
15871;SDS011;8035;51.962;7.162;2023-05-16T08:21:29;4.43;;;1.30;;
15871;SDS011;8035;51.962;7.162;2023-05-16T08:23:55;6.07;;;1.50;;
15871;SDS011;8035;51.962;7.162;2023-05-16T08:26:21;5.20;;;1.27;;
15871;SDS011;8035;51.962;7.162;2023-05-16T08:28:47;6.57;;;2.10;;
15871;SDS011;8035;51.962;7.162;2023-05-16T08:31:13;6.53;;;1.63;;
15871;SDS011;8035;51.962;7.162;2023-05-16T08:33:38;5.10;;;1.30;;
15871;SDS011;8035;51.962;7.162;2023-05-16T08:36:05;5.00;;;1.40;;
15871;SDS011;8035;51.962;7.162;2023-05-16T08:38:31;2.67;;;1.20;;
15871;SDS011;8035;51.962;7.162;2023-05-16T08:40:57;6.50;;;1.60;;
15871;SDS011;8035;51.962;7.162;2023-05-16T08:43:22;4.53;;;1.37;;
15871;SDS011;8035;51.962;7.162;2023-05-16T08:45:48;2.63;;;1.20;;
15871;SDS011;8035;51.962;7.162;2023-05-16T08:48:14;6.17;;;1.70;;
15871;SDS011;8035;51.962;7.162;2023-05-16T08:50:41;5.27;;;1.47;;
15871;SDS011;8035;51.962;7.162;2023-05-16T08:53:08;3.67;;;1.27;;
15871;SDS011;8035;51.962;7.162;2023-05-16T08:55:35;7.07;;;2.03;;
15871;SDS011;8035;51.962;7.162;2023-05-16T08:58:02;7.60;;;1.97;;
15871;SDS011;8035;51.962;7.162;2023-05-16T09:00:28;5.53;;;1.50;;
15871;SDS011;8035;51.962;7.162;2023-05-16T09:02:55;3.50;;;1.30;;
15871;SDS011;8035;51.962;7.162;2023-05-16T09:05:21;4.67;;;1.77;;
15871;SDS011;8035;51.962;7.162;2023-05-16T09:07:48;3.07;;;1.50;;
15871;SDS011;8035;51.962;7.162;2023-05-16T09:10:14;4.97;;;1.40;;
15871;SDS011;8035;51.962;7.162;2023-05-16T09:12:40;4.03;;;1.30;;
15871;SDS011;8035;51.962;7.162;2023-05-16T09:15:09;2.57;;;1.67;;
15871;SDS011;8035;51.962;7.162;2023-05-16T09:17:36;4.20;;;1.50;;
15871;SDS011;8035;51.962;7.162;2023-05-16T09:20:12;5.10;;;1.40;;
15871;SDS011;8035;51.962;7.162;2023-05-16T09:23:15;2.77;;;1.33;;
15871;SDS011;8035;51.962;7.162;2023-05-16T09:25:34;3.70;;;1.13;;
15871;SDS011;8035;51.962;7.162;2023-05-16T09:28:00;22.37;;;12.63;;
15871;SDS011;8035;51.962;7.162;2023-05-16T09:30:27;2.13;;;1.10;;
15871;SDS011;8035;51.962;7.162;2023-05-16T09:32:54;3.87;;;1.37;;
15871;SDS011;8035;51.962;7.162;2023-05-16T09:35:20;3.67;;;1.27;;
15871;SDS011;8035;51.962;7.162;2023-05-16T09:37:48;8.27;;;1.57;;
15871;SDS011;8035;51.962;7.162;2023-05-16T09:40:14;4.07;;;1.07;;
15871;SDS011;8035;51.962;7.162;2023-05-16T09:42:40;2.47;;;1.10;;
15871;SDS011;8035;51.962;7.162;2023-05-16T09:45:09;4.83;;;1.37;;
15871;SDS011;8035;51.962;7.162;2023-05-16T09:47:36;5.13;;;1.43;;
15871;SDS011;8035;51.962;7.162;2023-05-16T09:50:09;3.60;;;1.60;;
15871;SDS011;8035;51.962;7.162;2023-05-16T09:52:36;3.70;;;1.30;;
15871;SDS011;8035;51.962;7.162;2023-05-16T09:55:02;3.27;;;1.73;;
15871;SDS011;8035;51.962;7.162;2023-05-16T09:57:31;5.03;;;1.60;;
15871;SDS011;8035;51.962;7.162;2023-05-16T09:59:58;4.77;;;1.80;;
15871;SDS011;8035;51.962;7.162;2023-05-16T10:02:25;5.83;;;1.50;;
15871;SDS011;8035;51.962;7.162;2023-05-16T10:04:51;4.47;;;1.50;;
15871;SDS011;8035;51.962;7.162;2023-05-16T10:07:16;6.80;;;1.77;;
15871;SDS011;8035;51.962;7.162;2023-05-16T10:09:43;3.27;;;1.03;;
15871;SDS011;8035;51.962;7.162;2023-05-16T10:12:10;4.47;;;1.20;;
15871;SDS011;8035;51.962;7.162;2023-05-16T10:14:37;5.17;;;1.53;;
15871;SDS011;8035;51.962;7.162;2023-05-16T10:17:06;5.60;;;1.50;;
15871;SDS011;8035;51.962;7.162;2023-05-16T10:19:35;4.10;;;1.10;;
15871;SDS011;8035;51.962;7.162;2023-05-16T10:22:04;5.53;;;1.60;;
15871;SDS011;8035;51.962;7.162;2023-05-16T10:24:46;4.10;;;1.10;;
15871;SDS011;8035;51.962;7.162;2023-05-16T10:27:16;3.43;;;1.20;;
15871;SDS011;8035;51.962;7.162;2023-05-16T10:29:42;5.57;;;1.63;;
15871;SDS011;8035;51.962;7.162;2023-05-16T10:32:08;7.37;;;1.33;;
15871;SDS011;8035;51.962;7.162;2023-05-16T10:34:36;3.07;;;1.07;;
15871;SDS011;8035;51.962;7.162;2023-05-16T10:37:02;2.90;;;1.10;;
15871;SDS011;8035;51.962;7.162;2023-05-16T10:39:30;3.30;;;1.20;;
15871;SDS011;8035;51.962;7.162;2023-05-16T10:41:57;3.10;;;1.40;;
15871;SDS011;8035;51.962;7.162;2023-05-16T10:44:24;5.43;;;1.53;;
15871;SDS011;8035;51.962;7.162;2023-05-16T10:46:50;3.23;;;1.13;;
15871;SDS011;8035;51.962;7.162;2023-05-16T10:49:22;2.47;;;1.40;;
15871;SDS011;8035;51.962;7.162;2023-05-16T10:52:10;2.73;;;0.80;;
15871;SDS011;8035;51.962;7.162;2023-05-16T10:54:49;2.57;;;1.00;;
15871;SDS011;8035;51.962;7.162;2023-05-16T10:57:18;2.13;;;0.90;;
15871;SDS011;8035;51.962;7.162;2023-05-16T10:59:48;3.73;;;1.30;;
15871;SDS011;8035;51.962;7.162;2023-05-16T11:02:28;6.37;;;1.37;;
15871;SDS011;8035;51.962;7.162;2023-05-16T11:04:59;2.60;;;1.10;;
15871;SDS011;8035;51.962;7.162;2023-05-16T11:07:30;2.83;;;1.43;;
15871;SDS011;8035;51.962;7.162;2023-05-16T11:10:01;1.57;;;0.87;;
15871;SDS011;8035;51.962;7.162;2023-05-16T11:12:35;1.93;;;0.97;;
15871;SDS011;8035;51.962;7.162;2023-05-16T11:15:01;2.60;;;1.10;;
15871;SDS011;8035;51.962;7.162;2023-05-16T11:18:03;3.13;;;1.57;;
15871;SDS011;8035;51.962;7.162;2023-05-16T11:20:33;2.90;;;1.53;;
15871;SDS011;8035;51.962;7.162;2023-05-16T11:25:41;2.83;;;1.10;;
15871;SDS011;8035;51.962;7.162;2023-05-16T11:28:09;4.67;;;1.60;;
15871;SDS011;8035;51.962;7.162;2023-05-16T11:30:41;6.13;;;1.53;;
15871;SDS011;8035;51.962;7.162;2023-05-16T11:33:08;4.27;;;1.53;;
15871;SDS011;8035;51.962;7.162;2023-05-16T11:35:34;4.10;;;1.67;;
15871;SDS011;8035;51.962;7.162;2023-05-16T11:38:00;4.37;;;1.67;;
15871;SDS011;8035;51.962;7.162;2023-05-16T11:40:26;5.63;;;1.37;;
15871;SDS011;8035;51.962;7.162;2023-05-16T11:42:52;3.33;;;1.30;;
15871;SDS011;8035;51.962;7.162;2023-05-16T11:45:18;3.50;;;1.20;;
15871;SDS011;8035;51.962;7.162;2023-05-16T11:47:49;5.37;;;1.60;;
15871;SDS011;8035;51.962;7.162;2023-05-16T11:50:16;4.87;;;1.27;;
15871;SDS011;8035;51.962;7.162;2023-05-16T11:52:48;3.87;;;1.40;;
15871;SDS011;8035;51.962;7.162;2023-05-16T11:55:18;4.13;;;1.13;;
15871;SDS011;8035;51.962;7.162;2023-05-16T11:57:48;3.10;;;1.03;;
15871;SDS011;8035;51.962;7.162;2023-05-16T12:00:16;1.60;;;1.00;;
15871;SDS011;8035;51.962;7.162;2023-05-16T12:02:44;2.23;;;0.90;;
15871;SDS011;8035;51.962;7.162;2023-05-16T12:05:11;3.47;;;1.10;;
15871;SDS011;8035;51.962;7.162;2023-05-16T12:07:38;2.90;;;0.80;;
15871;SDS011;8035;51.962;7.162;2023-05-16T12:10:08;3.90;;;1.47;;
15871;SDS011;8035;51.962;7.162;2023-05-16T12:12:35;3.33;;;1.30;;
15871;SDS011;8035;51.962;7.162;2023-05-16T12:15:02;4.73;;;1.30;;
15871;SDS011;8035;51.962;7.162;2023-05-16T12:17:30;2.10;;;1.40;;
15871;SDS011;8035;51.962;7.162;2023-05-16T12:19:56;4.43;;;1.27;;
15871;SDS011;8035;51.962;7.162;2023-05-16T12:22:23;3.10;;;1.33;;
15871;SDS011;8035;51.962;7.162;2023-05-16T12:24:49;4.53;;;1.60;;
15871;SDS011;8035;51.962;7.162;2023-05-16T12:27:21;2.93;;;1.13;;
15871;SDS011;8035;51.962;7.162;2023-05-16T12:29:48;3.53;;;0.80;;
15871;SDS011;8035;51.962;7.162;2023-05-16T12:32:17;4.57;;;1.47;;
15871;SDS011;8035;51.962;7.162;2023-05-16T12:34:50;3.37;;;1.47;;
15871;SDS011;8035;51.962;7.162;2023-05-16T12:37:16;2.47;;;1.00;;
15871;SDS011;8035;51.962;7.162;2023-05-16T12:39:43;4.97;;;1.10;;
15871;SDS011;8035;51.962;7.162;2023-05-16T12:42:12;5.63;;;1.47;;
15871;SDS011;8035;51.962;7.162;2023-05-16T12:44:38;3.30;;;1.33;;
15871;SDS011;8035;51.962;7.162;2023-05-16T12:47:13;2.73;;;1.30;;
15871;SDS011;8035;51.962;7.162;2023-05-16T12:49:45;4.93;;;1.43;;
15871;SDS011;8035;51.962;7.162;2023-05-16T12:52:17;4.57;;;1.33;;
15871;SDS011;8035;51.962;7.162;2023-05-16T12:54:45;3.73;;;1.30;;
15871;SDS011;8035;51.962;7.162;2023-05-16T12:57:12;2.90;;;1.10;;
15871;SDS011;8035;51.962;7.162;2023-05-16T12:59:38;2.63;;;1.40;;
15871;SDS011;8035;51.962;7.162;2023-05-16T13:02:03;4.40;;;1.13;;
15871;SDS011;8035;51.962;7.162;2023-05-16T13:04:29;3.80;;;1.53;;
15871;SDS011;8035;51.962;7.162;2023-05-16T13:06:55;3.23;;;1.40;;
15871;SDS011;8035;51.962;7.162;2023-05-16T13:09:21;3.57;;;1.30;;
15871;SDS011;8035;51.962;7.162;2023-05-16T13:11:47;2.90;;;1.40;;
15871;SDS011;8035;51.962;7.162;2023-05-16T13:14:13;2.20;;;1.33;;
15871;SDS011;8035;51.962;7.162;2023-05-16T13:16:38;4.03;;;1.40;;
15871;SDS011;8035;51.962;7.162;2023-05-16T13:19:04;4.80;;;1.40;;
15871;SDS011;8035;51.962;7.162;2023-05-16T13:21:30;4.43;;;1.40;;
15871;SDS011;8035;51.962;7.162;2023-05-16T13:23:56;4.90;;;1.60;;
15871;SDS011;8035;51.962;7.162;2023-05-16T13:26:23;2.93;;;1.23;;
15871;SDS011;8035;51.962;7.162;2023-05-16T13:28:49;5.03;;;1.80;;
15871;SDS011;8035;51.962;7.162;2023-05-16T13:31:18;2.57;;;1.27;;
15871;SDS011;8035;51.962;7.162;2023-05-16T13:33:45;4.07;;;1.20;;
15871;SDS011;8035;51.962;7.162;2023-05-16T13:36:11;4.47;;;1.73;;
15871;SDS011;8035;51.962;7.162;2023-05-16T13:38:36;3.10;;;1.50;;
15871;SDS011;8035;51.962;7.162;2023-05-16T13:41:02;6.67;;;1.70;;
15871;SDS011;8035;51.962;7.162;2023-05-16T13:43:27;4.40;;;1.83;;
15871;SDS011;8035;51.962;7.162;2023-05-16T13:45:53;2.87;;;1.63;;
15871;SDS011;8035;51.962;7.162;2023-05-16T13:48:18;3.47;;;1.40;;
15871;SDS011;8035;51.962;7.162;2023-05-16T13:50:44;4.17;;;1.57;;
15871;SDS011;8035;51.962;7.162;2023-05-16T13:53:10;7.37;;;1.87;;
15871;SDS011;8035;51.962;7.162;2023-05-16T13:55:36;5.50;;;1.53;;
15871;SDS011;8035;51.962;7.162;2023-05-16T13:58:02;3.60;;;1.57;;
15871;SDS011;8035;51.962;7.162;2023-05-16T14:00:28;4.33;;;1.87;;
15871;SDS011;8035;51.962;7.162;2023-05-16T14:02:54;4.90;;;1.80;;
15871;SDS011;8035;51.962;7.162;2023-05-16T14:05:20;3.83;;;1.67;;
15871;SDS011;8035;51.962;7.162;2023-05-16T14:07:46;5.33;;;1.93;;
15871;SDS011;8035;51.962;7.162;2023-05-16T14:10:11;3.67;;;1.67;;
15871;SDS011;8035;51.962;7.162;2023-05-16T14:12:37;4.37;;;1.60;;
15871;SDS011;8035;51.962;7.162;2023-05-16T14:15:04;4.37;;;1.70;;
15871;SDS011;8035;51.962;7.162;2023-05-16T14:17:31;5.90;;;1.90;;
15871;SDS011;8035;51.962;7.162;2023-05-16T14:19:56;5.00;;;1.73;;
15871;SDS011;8035;51.962;7.162;2023-05-16T14:22:22;4.10;;;1.90;;
15871;SDS011;8035;51.962;7.162;2023-05-16T14:24:48;4.03;;;1.80;;
15871;SDS011;8035;51.962;7.162;2023-05-16T14:27:14;3.67;;;1.57;;
15871;SDS011;8035;51.962;7.162;2023-05-16T14:29:40;3.67;;;1.50;;
15871;SDS011;8035;51.962;7.162;2023-05-16T14:32:06;3.57;;;1.40;;
15871;SDS011;8035;51.962;7.162;2023-05-16T14:34:32;3.67;;;1.50;;
15871;SDS011;8035;51.962;7.162;2023-05-16T14:36:58;4.10;;;1.57;;
15871;SDS011;8035;51.962;7.162;2023-05-16T14:39:24;2.93;;;1.13;;
15871;SDS011;8035;51.962;7.162;2023-05-16T14:41:51;2.63;;;1.17;;
15871;SDS011;8035;51.962;7.162;2023-05-16T14:44:16;3.67;;;1.40;;
15871;SDS011;8035;51.962;7.162;2023-05-16T14:46:43;4.90;;;1.50;;
15871;SDS011;8035;51.962;7.162;2023-05-16T14:49:08;2.17;;;1.20;;
15871;SDS011;8035;51.962;7.162;2023-05-16T14:51:35;6.03;;;1.87;;
15871;SDS011;8035;51.962;7.162;2023-05-16T14:54:00;4.20;;;1.63;;
15871;SDS011;8035;51.962;7.162;2023-05-16T14:56:26;2.30;;;1.40;;
15871;SDS011;8035;51.962;7.162;2023-05-16T14:58:52;2.83;;;1.50;;
15871;SDS011;8035;51.962;7.162;2023-05-16T15:01:17;2.90;;;1.50;;
15871;SDS011;8035;51.962;7.162;2023-05-16T15:03:43;3.43;;;1.40;;
15871;SDS011;8035;51.962;7.162;2023-05-16T15:06:09;3.67;;;1.43;;
15871;SDS011;8035;51.962;7.162;2023-05-16T15:08:35;4.17;;;1.63;;
15871;SDS011;8035;51.962;7.162;2023-05-16T15:11:02;5.83;;;1.93;;
15871;SDS011;8035;51.962;7.162;2023-05-16T15:13:28;6.40;;;1.70;;